Time;durP1;ratioP1;P1;durP2;ratioP2;P2;SDS_P1;SDS_P2;PMS_P1;PMS_P2;Temp;Humidity;BMP_temperature;BMP_pressure;BME280_temperature;BME280_humidity;BME280_pressure;Samples;Min_cycle;Max_cycle;Signal;HPM_P1;HPM_P2
2022/01/09 00:00:36;;;;;;;3.40;1.70;;;;;;;2.89;100.00;-19242.81;4990280;28;20052;-67
2022/01/09 00:03:01;;;;;;;3.13;1.90;;;;;;;2.89;100.00;-19242.81;4988280;28;20108;-67
2022/01/09 00:05:29;;;;;;;3.77;1.93;;;;;;;2.85;100.00;-19241.75;4995734;28;20131;-67
2022/01/09 00:07:55;;;;;;;3.47;1.90;;;;;;;2.91;100.00;-19243.34;4989434;28;20502;-67
2022/01/09 00:10:21;;;;;;;4.00;2.10;;;;;;;2.85;100.00;-19241.75;4986357;28;20326;-67
2022/01/09 00:12:46;;;;;;;4.33;2.10;;;;;;;2.79;100.00;-19240.16;4988799;28;20040;-67
2022/01/09 00:15:12;;;;;;;3.30;1.80;;;;;;;2.76;100.00;-19239.38;4988635;28;20040;-67
2022/01/09 00:17:38;;;;;;;4.33;2.27;;;;;;;2.68;100.00;-19237.25;4987635;28;20037;-67
2022/01/09 00:20:06;;;;;;;3.23;1.60;;;;;;;2.75;100.00;-19239.09;4986433;28;20037;-67
2022/01/09 00:22:43;;;;;;;4.07;2.40;;;;;;;2.72;100.00;-19238.31;4985026;28;20041;-67
2022/01/09 00:25:09;;;;;;;5.50;2.47;;;;;;;2.67;100.00;-19236.97;4985508;28;20042;-67
2022/01/09 00:27:36;;;;;;;5.40;2.50;;;;;;;2.71;100.00;-19237.91;4985379;28;20434;-67
2022/01/09 00:30:04;;;;;;;3.90;2.00;;;;;;;2.76;100.00;-19239.38;4990304;28;20329;-67
2022/01/09 00:32:31;;;;;;;4.10;2.23;;;;;;;2.75;100.00;-19239.09;4990390;28;20436;-67
2022/01/09 00:35:00;;;;;;;3.60;2.20;;;;;;;2.83;100.00;-19241.09;4987870;28;20072;-67
2022/01/09 00:37:26;;;;;;;5.37;2.50;;;;;;;2.75;100.00;-19239.09;4995273;28;20033;-67
2022/01/09 00:39:52;;;;;;;3.93;2.33;;;;;;;2.78;100.00;-19239.88;4995087;28;20487;-67
2022/01/09 00:42:18;;;;;;;4.50;2.50;;;;;;;2.79;100.00;-19240.16;4993751;28;20022;-67
2022/01/09 00:44:43;;;;;;;3.80;2.23;;;;;;;2.87;100.00;-19242.28;4995105;28;20037;-67
2022/01/09 00:47:08;;;;;;;3.57;2.00;;;;;;;2.85;100.00;-19241.63;4994621;28;20033;-67
2022/01/09 00:49:34;;;;;;;3.97;2.13;;;;;;;2.82;100.00;-19240.81;4994934;28;20045;-67
2022/01/09 00:51:59;;;;;;;4.13;2.27;;;;;;;2.76;100.00;-19239.22;4994284;28;20119;-67
2022/01/09 00:54:25;;;;;;;3.87;2.13;;;;;;;2.70;100.00;-19237.63;4994855;28;20379;-67
2022/01/09 00:56:50;;;;;;;4.10;2.27;;;;;;;2.70;100.00;-19237.78;4997626;28;20196;-67
2022/01/09 00:59:15;;;;;;;4.63;2.40;;;;;;;2.69;100.00;-19237.50;4995754;28;20040;-67
2022/01/09 01:01:41;;;;;;;4.27;2.50;;;;;;;2.61;100.00;-19235.38;4995779;28;20288;-67
2022/01/09 01:04:06;;;;;;;4.27;2.30;;;;;;;2.60;100.00;-19235.13;4996672;28;20065;-67
2022/01/09 01:06:32;;;;;;;4.37;2.40;;;;;;;2.53;100.00;-19233.38;4997735;28;20580;-67
2022/01/09 01:08:57;;;;;;;4.03;2.27;;;;;;;2.60;100.00;-19235.13;4996261;28;20187;-67
2022/01/09 01:11:23;;;;;;;4.47;2.57;;;;;;;2.55;100.00;-16277.03;4997349;28;20103;-67
2022/01/09 01:13:48;;;;;;;4.57;2.30;;;;;;;2.48;100.00;-6140.38;4997604;28;20034;-67
2022/01/09 01:16:14;;;;;;;4.43;2.57;;;;;;;2.51;100.00;266.59;5000110;28;20347;-67
2022/01/09 01:18:43;;;;;;;4.57;2.57;;;;;;;2.51;100.00;2832.91;5000759;28;20037;-67
2022/01/09 01:21:08;;;;;;;4.90;2.90;;;;;;;2.48;100.00;7649.66;5000545;28;20131;-67
2022/01/09 01:23:34;;;;;;;4.63;2.57;;;;;;;2.48;100.00;14083.41;5000563;28;20034;-67
2022/01/09 01:26:01;;;;;;;4.90;2.70;;;;;;;2.41;100.00;24723.19;5000391;28;20029;-67
2022/01/09 01:28:27;;;;;;;4.23;2.40;;;;;;;2.40;100.00;32807.28;5000253;28;20084;-67
2022/01/09 01:30:53;;;;;;;4.37;2.43;;;;;;;2.40;100.00;41236.03;5000052;28;20579;-67
2022/01/09 01:33:19;;;;;;;4.23;2.63;;;;;;;2.39;100.00;45782.94;4999897;28;20037;-67
2022/01/09 01:35:46;;;;;;;4.37;2.57;;;;;;;2.30;100.00;50979.19;5001124;28;20140;-67
2022/01/09 01:38:12;;;;;;;5.47;3.07;;;;;;;2.28;100.00;56841.34;4999745;28;20467;-67
2022/01/09 01:40:37;;;;;;;5.17;2.80;;;;;;;2.28;100.00;62388.44;5000467;28;20044;-67
2022/01/09 01:43:03;;;;;;;8.50;3.17;;;;;;;2.24;100.00;66958.72;5000449;28;20032;-67
2022/01/09 01:45:28;;;;;;;5.57;3.10;;;;;;;2.25;100.00;73505.94;4998234;28;20327;-67
2022/01/09 01:47:54;;;;;;;4.97;2.90;;;;;;;2.22;100.00;77107.53;4999370;28;20624;-67
2022/01/09 01:50:20;;;;;;;5.80;3.00;;;;;;;2.24;100.00;81047.22;5000317;28;20037;-67
2022/01/09 01:52:50;;;;;;;5.00;2.90;;;;;;;2.25;100.00;83348.47;5000176;28;20034;-67
2022/01/09 01:55:17;;;;;;;5.60;3.13;;;;;;;2.23;100.00;86303.72;5000169;28;20360;-66
2022/01/09 01:57:44;;;;;;;5.77;3.10;;;;;;;2.22;100.00;90579.50;5000131;28;20080;-67
2022/01/09 02:00:13;;;;;;;5.03;3.00;;;;;;;2.27;100.00;93551.97;5000237;28;20445;-66
2022/01/09 02:02:39;;;;;;;5.40;2.77;;;;;;;2.29;100.00;94873.66;4997390;28;20050;-67
2022/01/09 02:05:05;;;;;;;6.43;2.90;;;;;;;2.25;100.00;95856.16;4999554;28;20176;-67
2022/01/09 02:07:31;;;;;;;5.47;3.07;;;;;;;2.28;100.00;97510.38;5000381;28;20180;-66
2022/01/09 02:09:57;;;;;;;5.83;3.13;;;;;;;2.24;100.00;98493.41;4999593;28;20526;-66
2022/01/09 02:12:22;;;;;;;4.47;2.50;;;;;;;2.25;100.00;101136.09;4999718;28;20038;-66
2022/01/09 02:14:48;;;;;;;4.77;2.60;;;;;;;2.20;100.00;103439.56;4999088;28;20305;-66
2022/01/09 02:17:21;;;;;;;5.53;2.67;;;;;;;2.20;100.00;105752.47;4999547;28;20022;-67
2022/01/09 02:19:56;;;;;;;4.97;3.03;;;;;;;2.17;100.00;108393.97;5005944;28;20033;-66
2022/01/09 02:22:24;;;;;;;4.70;2.53;;;;;;;2.16;100.00;110377.00;4999567;28;20088;-66
2022/01/09 02:24:50;;;;;;;6.23;2.93;;;;;;;2.14;100.00;112029.81;4998248;28;20417;-66
2022/01/09 02:27:16;;;;;;;5.37;2.93;;;;;;;2.16;100.00;114021.66;5000013;28;20026;-66
2022/01/09 02:29:45;;;;;;;5.00;2.97;;;;;;;2.16;100.00;115679.13;4999248;28;20410;-66
2022/01/09 02:32:15;;;;;;;6.37;3.30;;;;;;;2.17;100.00;117671.16;5008800;28;20032;-66
2022/01/09 02:34:41;;;;;;;6.27;3.00;;;;;;;2.18;100.00;120327.34;4999203;28;20029;-66
2022/01/09 02:37:06;;;;;;;5.77;3.20;;;;;;;2.17;100.00;121654.63;4999690;28;20486;-66
2022/01/09 02:39:32;;;;;;;5.73;3.07;;;;;;;2.15;100.00;122978.09;4998900;28;20599;-66
2022/01/09 02:41:59;;;;;;;5.73;2.93;;;;;;;2.16;100.00;124643.00;4999568;28;20283;-66
2022/01/09 02:44:25;;;;;;;5.83;3.07;;;;;;;2.15;100.00;125970.75;4999081;28;20250;-66
2022/01/09 02:49:19;;;;;;;4.90;2.60;;;;;;;2.14;100.00;129295.47;4998864;28;20137;-66
2022/01/09 02:51:46;;;;;;;5.50;2.97;;;;;;;2.11;100.00;130953.25;4997791;28;20562;-66
2022/01/09 02:56:56;;;;;;;5.43;3.23;;;;;;;2.15;100.00;133626.25;4999251;28;20240;-66
2022/01/09 02:59:21;;;;;;;5.57;3.00;;;;;;;2.17;100.00;134630.84;4999093;28;20033;-66
2022/01/09 03:01:46;;;;;;;5.87;3.00;;;;;;;2.14;100.00;135625.19;4999768;28;20030;-66
2022/01/09 03:04:12;;;;;;;4.47;2.67;;;;;;;2.14;100.00;136625.66;4998719;28;20081;-66
2022/01/09 03:06:37;;;;;;;7.07;3.60;;;;;;;2.15;100.00;137962.44;4999053;28;20434;-66
2022/01/09 03:09:05;;;;;;;5.40;3.10;;;;;;;2.12;100.00;138956.34;4998544;28;20190;-66
2022/01/09 03:11:31;;;;;;;5.30;2.80;;;;;;;2.13;100.00;140294.00;4997759;28;20033;-66
2022/01/09 03:13:57;;;;;;;6.23;3.33;;;;;;;2.13;100.00;141295.75;4998438;28;20121;-66
2022/01/09 03:16:25;;;;;;;6.70;3.23;;;;;;;2.12;100.00;142295.34;4998923;28;20040;-66
2022/01/09 03:18:50;;;;;;;5.80;3.13;;;;;;;2.12;100.00;142962.25;4998880;28;20080;-66
2022/01/09 03:21:16;;;;;;;6.20;3.07;;;;;;;2.12;100.00;143966.00;4998543;28;20113;-66
2022/01/09 03:23:41;;;;;;;5.27;2.87;;;;;;;2.15;100.00;144642.00;4997969;28;20037;-66
2022/01/09 03:26:09;;;;;;;5.10;2.80;;;;;;;2.14;100.00;144303.97;4998043;28;20033;-66
2022/01/09 03:28:35;;;;;;;5.20;2.50;;;;;;;2.16;100.00;143976.00;4998004;28;20103;-66
2022/01/09 03:31:01;;;;;;;5.97;3.20;;;;;;;2.10;100.00;143959.75;4998518;28;20029;-66
2022/01/09 03:33:26;;;;;;;5.23;2.90;;;;;;;2.08;100.00;144624.47;4998326;28;20604;-66
2022/01/09 03:35:52;;;;;;;5.53;3.00;;;;;;;2.08;100.00;144624.47;4999165;28;20049;-68
2022/01/09 03:38:20;;;;;;;5.77;3.10;;;;;;;2.07;100.00;144956.22;4997454;28;20110;-66
2022/01/09 03:40:46;;;;;;;5.37;2.83;;;;;;;2.01;100.00;144608.09;4998381;28;20029;-66
2022/01/09 03:43:11;;;;;;;5.53;2.90;;;;;;;1.97;100.00;144596.81;4997643;28;20510;-66
2022/01/09 03:45:36;;;;;;;4.93;2.50;;;;;;;1.96;100.00;144594.31;4997664;28;20631;-66
2022/01/09 03:48:02;;;;;;;5.53;3.00;;;;;;;1.91;100.00;144915.88;4997525;28;20356;-66
2022/01/09 03:50:28;;;;;;;5.53;3.00;;;;;;;1.89;100.00;145579.25;4997876;28;20318;-66
2022/01/09 03:52:53;;;;;;;4.87;2.57;;;;;;;1.86;100.00;146574.47;4998406;28;20029;-66
2022/01/09 03:55:21;;;;;;;4.87;2.73;;;;;;;1.84;100.00;146903.72;4998224;28;20243;-66
2022/01/09 03:57:48;;;;;;;5.33;3.00;;;;;;;1.84;100.00;147573.72;4997332;28;20017;-66
2022/01/09 04:00:16;;;;;;;5.53;3.20;;;;;;;1.82;100.00;147901.66;4997506;28;20203;-66
2022/01/09 04:02:43;;;;;;;5.67;3.13;;;;;;;1.84;100.00;147909.44;4997653;28;20042;-66
2022/01/09 04:05:09;;;;;;;6.17;3.13;;;;;;;1.80;100.00;147899.13;4997667;28;20391;-66
2022/01/09 04:07:35;;;;;;;5.83;3.20;;;;;;;1.77;100.00;147894.00;4997816;28;20096;-66
2022/01/09 04:10:01;;;;;;;5.87;3.00;;;;;;;1.76;100.00;147891.44;4997471;28;20456;-66
2022/01/09 04:12:36;;;;;;;6.10;3.40;;;;;;;1.80;100.00;147900.41;4997415;28;20608;-66
2022/01/09 04:15:06;;;;;;;6.77;3.60;;;;;;;1.81;100.00;147901.69;4997485;28;20162;-66
2022/01/09 04:17:51;;;;;;;5.77;2.97;;;;;;;1.81;100.00;147901.69;4997117;28;20037;-66
2022/01/09 04:20:17;;;;;;;6.13;3.10;;;;;;;1.82;100.00;147904.28;4988004;28;20545;-66
2022/01/09 04:22:42;;;;;;;7.10;3.80;;;;;;;1.81;100.00;147901.69;4997352;28;20225;-66
2022/01/09 04:25:14;;;;;;;6.57;3.10;;;;;;;1.82;100.00;147905.59;5002478;28;20049;-66
2022/01/09 04:27:39;;;;;;;6.10;3.10;;;;;;;1.81;100.00;147901.69;4996813;28;20034;-66
2022/01/09 04:30:06;;;;;;;7.07;3.60;;;;;;;1.79;100.00;147897.84;4997466;28;20264;-66
2022/01/09 04:32:35;;;;;;;6.40;3.53;;;;;;;1.77;100.00;147894.00;4997314;28;20041;-66
2022/01/09 04:35:00;;;;;;;5.97;3.03;;;;;;;1.70;100.00;147876.03;4996909;28;20698;-66
2022/01/09 04:37:26;;;;;;;6.83;3.67;;;;;;;1.64;100.00;147860.59;4997456;28;20030;-66
2022/01/09 04:39:55;;;;;;;5.73;3.20;;;;;;;1.55;100.00;147837.47;4997160;28;20030;-66
2022/01/09 04:42:25;;;;;;;6.97;3.70;;;;;;;1.43;100.00;147806.63;4996985;28;20228;-66
2022/01/09 04:44:54;;;;;;;6.63;3.50;;;;;;;1.32;100.00;147778.38;4996937;28;20033;-66
2022/01/09 04:47:19;;;;;;;5.43;2.87;;;;;;;1.24;100.00;147759.13;4999450;28;20021;-66
2022/01/09 04:49:47;;;;;;;6.43;3.20;;;;;;;1.15;100.00;147737.28;5000808;28;20045;-66
2022/01/09 04:52:17;;;;;;;6.63;3.47;;;;;;;1.04;100.00;147709.00;5000430;28;20025;-66
2022/01/09 04:54:43;;;;;;;7.17;3.37;;;;;;;0.92;100.00;147678.19;5000196;28;20036;-66
2022/01/09 04:57:08;;;;;;;8.63;3.93;;;;;;;0.87;100.00;147665.38;5000524;28;20038;-66
2022/01/09 04:59:34;;;;;;;8.13;4.60;;;;;;;0.76;100.00;147637.13;5001185;28;20065;-66
2022/01/09 05:01:59;;;;;;;7.60;3.70;;;;;;;0.73;100.00;147630.72;5000626;28;20026;-66
2022/01/09 05:04:25;;;;;;;7.73;4.10;;;;;;;0.73;100.00;147629.44;4999906;28;20109;-66
2022/01/09 05:06:50;;;;;;;7.87;3.80;;;;;;;0.66;100.00;147611.44;5001250;28;20057;-66
2022/01/09 05:09:15;;;;;;;8.83;4.50;;;;;;;0.65;100.00;147608.88;5000682;28;20417;-66
2022/01/09 05:11:41;;;;;;;8.43;4.30;;;;;;;0.59;100.00;147596.00;5000499;28;20030;-66
2022/01/09 05:14:06;;;;;;;8.07;3.90;;;;;;;0.56;100.00;147587.03;5000824;28;20088;-66
2022/01/09 05:16:32;;;;;;;9.63;4.43;;;;;;;0.53;100.00;147580.63;4998322;28;20084;-66
2022/01/09 05:19:16;;;;;;;8.80;4.33;;;;;;;0.50;100.00;147572.94;5000604;28;20021;-66
2022/01/09 05:21:41;;;;;;;9.17;4.73;;;;;;;0.46;100.00;147562.66;5001082;28;20026;-66
2022/01/09 05:24:06;;;;;;;9.80;4.63;;;;;;;0.45;100.00;147560.09;5000030;28;20026;-66
2022/01/09 05:26:32;;;;;;;10.37;5.10;;;;;;;0.40;100.00;147547.25;5000208;28;20495;-66
2022/01/09 05:29:00;;;;;;;10.00;4.70;;;;;;;0.42;100.00;147551.09;5000970;28;20030;-66
2022/01/09 05:31:26;;;;;;;10.83;4.97;;;;;;;0.47;100.00;147563.94;5000221;28;20022;-66
2022/01/09 05:33:51;;;;;;;9.67;4.30;;;;;;;0.48;100.00;147567.78;5000620;28;20032;-66
2022/01/09 05:36:16;;;;;;;10.10;4.90;;;;;;;0.50;100.00;147572.94;5000225;28;20103;-66
2022/01/09 05:38:42;;;;;;;9.30;4.37;;;;;;;0.55;100.00;147584.47;5000738;28;20030;-66
2022/01/09 05:41:07;;;;;;;11.17;5.13;;;;;;;0.58;100.00;147593.44;5000402;28;20018;-66
2022/01/09 05:43:33;;;;;;;10.87;4.73;;;;;;;0.62;100.00;147601.19;4999875;28;20079;-66
2022/01/09 05:45:58;;;;;;;10.37;5.27;;;;;;;0.65;100.00;147610.16;4999262;28;20551;-66
2022/01/09 05:48:24;;;;;;;10.63;4.80;;;;;;;0.68;100.00;147617.84;4999994;28;20047;-66
2022/01/09 05:50:49;;;;;;;9.77;4.43;;;;;;;0.72;100.00;147628.09;5001458;28;20294;-66
2022/01/09 05:53:17;;;;;;;10.63;4.77;;;;;;;0.74;100.00;147632.00;4999472;28;20021;-66
2022/01/09 05:55:42;;;;;;;8.83;4.30;;;;;;;0.76;100.00;147638.41;5000278;28;20080;-66
2022/01/09 05:58:07;;;;;;;10.73;5.40;;;;;;;0.80;100.00;147648.66;4999630;28;20098;-66
2022/01/09 06:00:33;;;;;;;11.90;4.90;;;;;;;0.82;100.00;147653.78;4998995;28;20025;-66
2022/01/09 06:02:58;;;;;;;10.93;4.97;;;;;;;0.86;100.00;147664.09;4996698;28;20033;-66
2022/01/09 06:05:24;;;;;;;10.90;4.97;;;;;;;0.92;100.00;147678.19;5000919;28;20198;-66
2022/01/09 06:07:49;;;;;;;10.57;4.90;;;;;;;1.03;100.00;147705.16;4999913;28;20087;-66
2022/01/09 06:10:15;;;;;;;10.53;5.20;;;;;;;1.06;100.00;147714.16;4999302;28;20039;-66
2022/01/09 06:12:43;;;;;;;10.93;5.20;;;;;;;1.09;100.00;147721.88;4999336;28;20098;-66
2022/01/09 06:15:12;;;;;;;11.00;4.90;;;;;;;1.14;100.00;147733.44;4999610;28;20030;-66
2022/01/09 06:17:40;;;;;;;11.27;5.37;;;;;;;1.17;100.00;147742.41;4999157;28;20438;-66
2022/01/09 06:20:07;;;;;;;10.70;5.17;;;;;;;1.25;100.00;147760.41;4998863;28;20063;-66
2022/01/09 06:22:32;;;;;;;13.50;4.77;;;;;;;1.27;100.00;147765.53;4998907;28;20164;-66
2022/01/09 06:25:05;;;;;;;12.63;5.53;;;;;;;1.31;100.00;147777.06;4999807;28;20030;-66
2022/01/09 06:27:31;;;;;;;11.10;5.47;;;;;;;1.32;100.00;147778.38;4999273;28;20026;-66
2022/01/09 06:29:56;;;;;;;11.80;5.17;;;;;;;1.34;100.00;147784.81;4999201;28;20544;-66
2022/01/09 06:32:27;;;;;;;11.00;4.77;;;;;;;1.39;100.00;147796.38;4999266;28;20525;-66
2022/01/09 06:34:54;;;;;;;12.90;5.20;;;;;;;1.47;100.00;147816.94;4998750;28;20093;-66
2022/01/09 06:37:20;;;;;;;11.23;4.63;;;;;;;1.60;100.00;147849.06;4998031;28;20080;-66
2022/01/09 06:39:45;;;;;;;10.83;4.60;;;;;;;1.83;100.00;147906.88;4999376;28;20029;-66
2022/01/09 06:42:11;;;;;;;10.90;4.77;;;;;;;1.88;100.00;147921.00;4999733;28;20522;-66
2022/01/09 06:44:37;;;;;;;12.67;4.73;;;;;;;1.94;100.00;147935.13;4998152;28;20125;-66
2022/01/09 06:47:03;;;;;;;12.23;5.07;;;;;;;1.96;100.00;147940.31;4998024;28;20104;-66
2022/01/09 06:49:28;;;;;;;10.50;4.10;;;;;;;1.99;100.00;147948.00;4998244;28;20276;-66
2022/01/09 06:51:53;;;;;;;11.50;4.50;;;;;;;2.02;100.00;147956.97;4998382;28;20105;-66
2022/01/09 06:54:21;;;;;;;11.93;5.30;;;;;;;2.06;100.00;147966.03;4998881;28;20438;-66
2022/01/09 06:56:47;;;;;;;12.93;4.83;;;;;;;2.12;100.00;147981.41;4998416;28;20053;-66
2022/01/09 06:59:12;;;;;;;12.77;5.23;;;;;;;2.17;100.00;147994.25;4998782;28;20284;-66
2022/01/09 07:01:40;;;;;;;14.93;5.30;;;;;;;2.22;100.00;148007.13;4998391;28;20021;-66
2022/01/09 07:04:05;;;;;;;17.27;5.30;;;;;;;2.34;100.00;148038.00;4997767;28;20462;-66
2022/01/09 07:06:33;;;;;;;14.50;4.93;;;;;;;2.40;100.00;148050.84;4997505;28;20492;-66
2022/01/09 07:09:01;;;;;;;12.07;4.40;;;;;;;2.49;100.00;148074.00;4997602;28;20478;-66
2022/01/09 07:11:26;;;;;;;17.23;5.30;;;;;;;2.51;100.00;148079.13;4997732;28;20224;-66
2022/01/09 07:13:52;;;;;;;11.70;4.63;;;;;;;2.65;100.00;148115.13;4997976;28;20131;-66
2022/01/09 07:16:17;;;;;;;12.70;4.43;;;;;;;2.78;100.00;148148.56;4998944;28;20038;-66
2022/01/09 07:18:43;;;;;;;14.30;4.50;;;;;;;2.81;100.00;148156.31;4997505;28;20526;-66
2022/01/09 07:21:11;;;;;;;12.37;4.47;;;;;;;2.86;100.00;148169.16;4997641;28;20284;-66
2022/01/09 07:23:36;;;;;;;15.90;4.97;;;;;;;2.93;100.00;148185.91;4997281;28;20097;-66
2022/01/09 07:26:04;;;;;;;11.37;4.37;;;;;;;3.12;100.00;148234.78;4998076;28;20056;-66
2022/01/09 07:28:30;;;;;;;15.47;5.37;;;;;;;3.21;100.00;148256.66;4998070;28;20026;-66
2022/01/09 07:30:55;;;;;;;13.23;4.90;;;;;;;3.32;100.00;148284.97;4996883;28;20033;-66
2022/01/09 07:33:21;;;;;;;19.37;6.20;;;;;;;3.42;100.00;148310.72;4998066;28;20214;-66
2022/01/09 07:35:46;;;;;;;15.50;4.53;;;;;;;3.49;100.00;148327.44;4998051;28;20505;-66
2022/01/09 07:38:12;;;;;;;10.13;4.40;;;;;;;3.48;100.00;148326.16;4997584;28;20030;-66
2022/01/09 07:40:37;;;;;;;12.37;4.83;;;;;;;3.58;100.00;148349.31;4997008;28;20033;-66
2022/01/09 07:43:03;;;;;;;16.90;4.77;;;;;;;3.63;100.00;148362.19;4997018;28;20370;-66
2022/01/09 07:45:32;;;;;;;16.67;4.07;;;;;;;3.63;100.00;148363.47;4994842;28;20111;-66
2022/01/09 07:48:00;;;;;;;17.67;4.73;;;;;;;3.68;100.00;148375.09;4997622;28;20038;-66
2022/01/09 07:50:27;;;;;;;14.97;4.20;;;;;;;3.67;100.00;148373.78;4997595;28;20255;-66
2022/01/09 07:52:56;;;;;;;12.87;3.67;;;;;;;3.73;100.00;148389.22;4997722;28;20163;-66
2022/01/09 07:55:22;;;;;;;16.67;4.23;;;;;;;3.76;100.00;148396.97;4997628;28;20029;-66
2022/01/09 07:57:48;;;;;;;16.97;3.73;;;;;;;3.92;100.00;148436.88;4996092;28;20228;-66
2022/01/09 08:00:15;;;;;;;20.67;5.00;;;;;;;4.03;100.00;148463.94;4996714;28;20273;-66
2022/01/09 08:02:41;;;;;;;14.13;3.67;;;;;;;4.11;100.00;148484.50;4995200;28;20057;-66
2022/01/09 08:05:10;;;;;;;26.83;4.97;;;;;;;4.16;100.00;148496.13;4996093;28;20050;-66
2022/01/09 08:07:36;;;;;;;16.67;3.10;;;;;;;4.30;100.00;148532.19;4998032;28;20524;-66
2022/01/09 08:10:05;;;;;;;12.00;3.03;;;;;;;4.29;100.00;148529.59;4995767;28;20253;-66
2022/01/09 08:12:30;;;;;;;21.93;3.07;;;;;;;4.43;100.00;148564.38;4996087;28;20048;-66
2022/01/09 08:14:56;;;;;;;15.40;3.07;;;;;;;4.47;100.00;148575.97;4997363;28;20109;-66
2022/01/09 08:17:21;;;;;;;18.60;2.90;;;;;;;4.59;100.00;148606.88;4997483;28;20029;-66
2022/01/09 08:19:47;;;;;;;16.97;3.97;;;;;;;4.64;100.00;148619.78;4997649;28;20025;-66
2022/01/09 08:22:12;;;;;;;24.63;2.50;;;;;;;4.67;100.00;148627.50;5000577;28;20049;-66
2022/01/09 08:24:40;;;;;;;15.20;2.23;;;;;;;4.71;100.00;148637.81;5002056;28;20517;-67
2022/01/09 08:27:08;;;;;;;20.43;2.80;;;;;;;4.71;100.00;148637.81;5004780;28;20205;-66
2022/01/09 08:29:34;;;;;;;14.03;2.33;;;;;;;4.78;100.00;148653.28;4999490;28;20030;-66
2022/01/09 08:32:00;;;;;;;11.83;2.80;;;;;;;4.80;100.00;148658.44;5000592;28;20068;-67
2022/01/09 08:34:28;;;;;;;14.13;1.90;;;;;;;4.81;100.00;148661.00;5001375;28;20482;-66
2022/01/09 08:36:53;;;;;;;8.40;2.20;;;;;;;4.71;100.00;148637.81;5001537;28;20080;-67
2022/01/09 08:39:19;;;;;;;18.27;3.27;;;;;;;4.77;100.00;148650.72;5000898;28;20269;-67
2022/01/09 08:41:44;;;;;;;9.07;2.43;;;;;;;4.80;100.00;148658.44;5003448;28;20053;-67
2022/01/09 08:44:10;;;;;;;14.97;2.30;;;;;;;4.82;100.00;148663.59;5000377;28;20030;-66
2022/01/09 08:46:36;;;;;;;14.33;2.63;;;;;;;4.81;100.00;148661.00;4999444;28;21436;-66
2022/01/09 08:49:06;;;;;;;7.63;2.03;;;;;;;4.86;100.00;148675.22;4998334;28;20036;-66
2022/01/09 08:51:35;;;;;;;9.43;1.53;;;;;;;4.89;100.00;148681.66;4998891;28;20022;-67
2022/01/09 08:54:00;;;;;;;17.83;2.00;;;;;;;4.90;100.00;148684.22;4997910;28;20030;-67
2022/01/09 08:56:27;;;;;;;14.07;1.90;;;;;;;4.90;100.00;148684.22;4999748;28;20036;-67
2022/01/09 08:58:54;;;;;;;9.37;1.30;;;;;;;4.89;100.00;148682.94;5000520;28;20060;-67
2022/01/09 09:01:22;;;;;;;13.50;1.77;;;;;;;4.92;100.00;148689.38;4998852;28;20037;-67
2022/01/09 09:03:50;;;;;;;18.07;2.47;;;;;;;4.94;100.00;148695.81;4998417;28;20572;-67
2022/01/09 09:06:16;;;;;;;9.83;2.13;;;;;;;4.95;100.00;148698.38;5004833;28;20277;-67
2022/01/09 09:08:44;;;;;;;15.43;2.37;;;;;;;4.96;100.00;148700.94;4999560;28;20037;-67
2022/01/09 09:11:11;;;;;;;9.30;1.90;;;;;;;4.98;100.00;148706.16;4999903;28;20099;-67
2022/01/09 09:13:38;;;;;;;11.37;2.40;;;;;;;4.95;100.00;148698.38;4999696;28;20167;-67
2022/01/09 09:16:04;;;;;;;9.40;1.30;;;;;;;4.97;100.00;148702.28;5000670;28;20683;-67
2022/01/09 09:18:30;;;;;;;9.43;1.93;;;;;;;4.96;100.00;148699.66;4997957;28;20654;-67
2022/01/09 09:20:56;;;;;;;15.33;2.70;;;;;;;5.00;100.00;148710.00;4997656;28;20030;-67
2022/01/09 09:23:23;;;;;;;11.30;1.77;;;;;;;4.96;100.00;148700.94;4997299;28;20078;-67
2022/01/09 09:25:48;;;;;;;13.67;2.67;;;;;;;5.02;100.00;148715.16;4997600;28;20111;-67
2022/01/09 09:28:14;;;;;;;15.50;1.90;;;;;;;5.02;100.00;148715.16;5000197;28;20033;-67
2022/01/09 09:30:41;;;;;;;11.30;2.50;;;;;;;5.08;100.00;148730.59;4996736;28;20152;-67
2022/01/09 09:33:06;;;;;;;13.80;2.50;;;;;;;5.06;100.00;148725.44;4996220;28;20087;-67
2022/01/09 09:35:33;;;;;;;9.80;1.20;;;;;;;5.11;100.00;148738.38;4996871;28;20033;-67
2022/01/09 09:37:58;;;;;;;15.47;2.03;;;;;;;5.09;100.00;148730.59;4995850;28;20545;-67
2022/01/09 09:40:25;;;;;;;14.90;2.47;;;;;;;5.11;100.00;146046.38;4989815;28;20041;-67
2022/01/09 09:42:51;;;;;;;11.97;2.03;;;;;;;5.12;100.00;143025.72;4993906;28;20532;-67
2022/01/09 09:45:16;;;;;;;4.90;1.20;;;;;;;5.15;100.00;139676.91;4995852;28;20022;-67
2022/01/09 09:47:42;;;;;;;12.83;2.20;;;;;;;5.11;100.00;137318.72;4996954;28;20120;-67
2022/01/09 09:50:11;;;;;;;8.10;1.63;;;;;;;5.11;100.00;134639.13;4997422;28;20092;-67
2022/01/09 09:52:36;;;;;;;14.13;2.57;;;;;;;5.12;100.00;131962.69;4997117;28;20151;-67
2022/01/09 09:55:03;;;;;;;10.97;1.77;;;;;;;5.13;100.00;129288.16;5006173;28;20116;-67
2022/01/09 09:57:29;;;;;;;6.27;1.87;;;;;;;5.11;100.00;126607.88;5001942;28;20060;-67
2022/01/09 10:00:00;;;;;;;11.23;1.43;;;;;;;5.14;100.00;122606.03;4998364;28;20619;-67
2022/01/09 10:02:26;;;;;;;9.63;1.63;;;;;;;5.15;100.00;119938.38;4997255;28;20036;-67
2022/01/09 10:05:03;;;;;;;10.70;2.20;;;;;;;5.17;100.00;116275.75;5002726;28;20053;-67
2022/01/09 10:07:29;;;;;;;9.20;2.40;;;;;;;5.18;100.00;111946.94;5002617;28;20457;-67
2022/01/09 10:10:08;;;;;;;6.87;1.57;;;;;;;5.13;100.00;109276.59;4990769;28;20040;-67
2022/01/09 10:12:34;;;;;;;9.70;2.60;;;;;;;5.17;100.00;104630.88;4992764;28;20033;-67
2022/01/09 10:15:04;;;;;;;5.50;1.20;;;;;;;5.18;100.00;99985.50;4997889;28;20568;-67
2022/01/09 10:17:31;;;;;;;6.47;1.97;;;;;;;5.20;100.00;94022.13;4998802;28;20342;-67
2022/01/09 10:19:57;;;;;;;14.83;2.53;;;;;;;5.16;100.00;92030.13;4995811;28;20124;-67
2022/01/09 10:22:29;;;;;;;6.70;1.37;;;;;;;5.21;100.00;90052.06;4999718;28;20429;-67
2022/01/09 10:24:56;;;;;;;5.47;1.80;;;;;;;5.21;100.00;86085.69;4996661;28;20132;-67
2022/01/09 10:27:29;;;;;;;9.07;1.80;;;;;;;5.21;100.00;79483.13;5005189;28;20035;-67
2022/01/09 10:29:54;;;;;;;5.47;1.00;;;;;;;5.24;100.00;79158.22;4994792;28;20041;-67
2022/01/09 10:32:24;;;;;;;6.20;1.30;;;;;;;5.25;100.00;74875.31;5004303;28;20034;-67
2022/01/09 10:35:07;;;;;;;7.37;1.50;;;;;;;5.24;100.00;67635.94;4998449;28;20037;-67
2022/01/09 10:37:35;;;;;;;12.30;1.10;;;;;;;5.23;100.00;64021.56;4993138;28;20461;-67
2022/01/09 10:40:01;;;;;;;13.13;1.63;;;;;;;5.21;100.00;64347.59;4998799;28;20034;-67
2022/01/09 10:42:27;;;;;;;5.93;1.37;;;;;;;5.21;100.00;61722.03;5003971;28;20522;-67
2022/01/09 10:44:53;;;;;;;5.30;1.43;;;;;;;5.23;100.00;54841.53;4993639;28;21235;-67
2022/01/09 10:47:18;;;;;;;6.90;1.00;;;;;;;5.21;100.00;47644.38;4998819;28;20079;-68
2022/01/09 10:49:51;;;;;;;8.63;1.87;;;;;;;5.19;100.00;45682.63;4998875;28;20030;-67
2022/01/09 10:52:31;;;;;;;9.77;1.13;;;;;;;5.18;100.00;45355.34;5001366;28;20037;-67
2022/01/09 10:54:58;;;;;;;6.70;1.30;;;;;;;5.21;100.00;50258.59;4996154;28;20117;-67
2022/01/09 10:57:30;;;;;;;2.97;1.00;;;;;;;5.18;100.00;46988.50;4999445;28;20029;-68
2022/01/09 11:00:11;;;;;;;4.88;1.40;;;;;;;5.23;100.00;41444.13;4994730;28;20633;-68
2022/01/09 11:02:36;;;;;;;6.83;1.60;;;;;;;5.21;100.00;38834.44;4994842;28;20116;-68
2022/01/09 11:05:13;;;;;;;4.77;1.17;;;;;;;5.20;100.00;38182.44;5129957;27;20755;-68
2022/01/09 11:07:40;;;;;;;7.33;1.70;;;;;;;5.23;100.00;32975.78;5122324;27;20187;-67
2022/01/09 11:10:07;;;;;;;6.57;1.53;;;;;;;5.22;100.00;28423.94;5121418;27;20037;-67
2022/01/09 11:12:45;;;;;;;5.07;1.53;;;;;;;5.25;100.00;19666.03;5128040;27;20138;-67
2022/01/09 11:15:12;;;;;;;7.40;1.40;;;;;;;5.26;100.00;19990.44;5124967;27;20045;-68
2022/01/09 11:17:38;;;;;;;6.50;2.33;;;;;;;5.30;100.00;18048.16;5128524;27;20031;-68
2022/01/09 11:20:03;;;;;;;9.57;1.67;;;;;;;5.31;100.00;12870.31;5131136;27;20197;-68
2022/01/09 11:22:29;;;;;;;4.63;0.90;;;;;;;5.27;100.00;10606.66;5128154;27;20027;-67
2022/01/09 11:25:01;;;;;;;4.70;1.53;;;;;;;5.27;100.00;5440.50;5130098;27;20129;-68
2022/01/09 11:27:44;;;;;;;6.10;2.00;;;;;;;5.27;100.00;6408.50;5127500;27;20083;-68